N3368K EGDM-EDDN
Flight info
| Callsign | N3368K |
|---|---|
| Flight time | 1h 28m |
| Altitude | 39000 |
| Route | SAM L620 MID DCT DVR UL9 KONAN UL607 MATUG DCT BOMBI L984 KOMIB T193 ERTES |
| Aircraft | C25C/L-SDFGRWY/S |
Departure
| Time | 2026-05-05 15:01 |
|---|---|
| Airport | MoD Boscombe Down (EGDM) |
Arrival
| Time | 2026-05-05 16:29 |
|---|---|
| Airport | Nuremberg Airport (EDDN) |
| Time | Latitude | Longitude | Altitude | Speed | Heading |
|---|---|---|---|---|---|
| 2026-05-05 14:43 | 51.16346 | -1.74766 | 394 ft | 0 kts | 160° |
| 2026-05-05 14:47 | 51.16352 | -1.74770 | 394 ft | 1 kts | 158° |
| 2026-05-05 14:48 | 51.16361 | -1.74776 | 393 ft | 0 kts | 147° |
| 2026-05-05 14:48 | 51.16365 | -1.74784 | 394 ft | 0 kts | 86° |
| 2026-05-05 14:51 | 51.16369 | -1.74727 | 394 ft | 12 kts | 81° |
| 2026-05-05 14:51 | 51.16406 | -1.74562 | 394 ft | 17 kts | 65° |
| 2026-05-05 14:51 | 51.16448 | -1.74398 | 394 ft | 16 kts | 70° |
| 2026-05-05 14:52 | 51.16442 | -1.74234 | 393 ft | 15 kts | 105° |
| 2026-05-05 14:52 | 51.16414 | -1.74076 | 393 ft | 15 kts | 105° |
| 2026-05-05 14:52 | 51.16386 | -1.73923 | 393 ft | 14 kts | 107° |
| 2026-05-05 14:52 | 51.16352 | -1.73781 | 392 ft | 14 kts | 133° |
| 2026-05-05 14:53 | 51.16265 | -1.73711 | 391 ft | 15 kts | 188° |
| 2026-05-05 14:53 | 51.16205 | -1.73835 | 390 ft | 15 kts | 251° |
| 2026-05-05 14:53 | 51.16166 | -1.73985 | 390 ft | 15 kts | 247° |
| 2026-05-05 14:53 | 51.16129 | -1.74133 | 390 ft | 14 kts | 248° |
| 2026-05-05 14:54 | 51.16093 | -1.74277 | 391 ft | 14 kts | 248° |
| 2026-05-05 14:54 | 51.16056 | -1.74415 | 391 ft | 13 kts | 242° |
| 2026-05-05 14:54 | 51.16001 | -1.74531 | 391 ft | 13 kts | 223° |
| 2026-05-05 14:54 | 51.15918 | -1.74619 | 391 ft | 17 kts | 208° |
| 2026-05-05 14:55 | 51.15805 | -1.74716 | 391 ft | 20 kts | 208° |
| 2026-05-05 14:55 | 51.15684 | -1.74819 | 392 ft | 19 kts | 208° |
| 2026-05-05 14:55 | 51.15576 | -1.74943 | 392 ft | 19 kts | 224° |
| 2026-05-05 14:55 | 51.15491 | -1.75099 | 393 ft | 18 kts | 230° |
| 2026-05-05 14:56 | 51.15412 | -1.75250 | 392 ft | 17 kts | 229° |
| 2026-05-05 14:56 | 51.15336 | -1.75394 | 395 ft | 17 kts | 230° |
| 2026-05-05 14:56 | 51.15255 | -1.75549 | 396 ft | 19 kts | 230° |
| 2026-05-05 14:56 | 51.15170 | -1.75711 | 397 ft | 19 kts | 230° |
| 2026-05-05 14:57 | 51.15087 | -1.75865 | 397 ft | 18 kts | 231° |
| 2026-05-05 14:57 | 51.15009 | -1.76017 | 398 ft | 17 kts | 230° |
| 2026-05-05 14:57 | 51.14933 | -1.76161 | 399 ft | 17 kts | 231° |
| 2026-05-05 14:57 | 51.14856 | -1.76307 | 400 ft | 18 kts | 230° |
| 2026-05-05 14:58 | 51.14775 | -1.76463 | 400 ft | 19 kts | 231° |
| 2026-05-05 14:58 | 51.14688 | -1.76629 | 402 ft | 20 kts | 230° |
| 2026-05-05 14:58 | 51.14615 | -1.76818 | 402 ft | 19 kts | 254° |
| 2026-05-05 14:58 | 51.14604 | -1.76890 | 403 ft | 0 kts | 248° |
| 2026-05-05 14:59 | 51.14603 | -1.76893 | 403 ft | 4 kts | 248° |
| 2026-05-05 14:59 | 51.14527 | -1.76957 | 403 ft | 17 kts | 173° |
| 2026-05-05 14:59 | 51.14446 | -1.76834 | 401 ft | 17 kts | 112° |
| 2026-05-05 15:00 | 51.14449 | -1.76778 | 402 ft | 0 kts | 52° |
| 2026-05-05 15:00 | 51.14728 | -1.76256 | 401 ft | 112 kts | 47° |
| 2026-05-05 15:00 | 51.15429 | -1.75007 | 736 ft | 183 kts | 47° |
| 2026-05-05 15:01 | 51.16305 | -1.73174 | 1698 ft | 229 kts | 52° |
| 2026-05-05 15:01 | 51.17249 | -1.71129 | 3061 ft | 232 kts | 51° |
| 2026-05-05 15:01 | 51.18149 | -1.69178 | 4122 ft | 239 kts | 52° |
| 2026-05-05 15:01 | 51.18868 | -1.66781 | 5327 ft | 245 kts | 77° |
| 2026-05-05 15:02 | 51.19243 | -1.64102 | 6470 ft | 249 kts | 76° |
| 2026-05-05 15:02 | 51.19043 | -1.61328 | 7506 ft | 263 kts | 116° |
| 2026-05-05 15:02 | 51.17823 | -1.59169 | 8536 ft | 273 kts | 139° |
| 2026-05-05 15:02 | 51.16279 | -1.57327 | 9668 ft | 276 kts | 144° |
| 2026-05-05 15:03 | 51.14649 | -1.55633 | 10646 ft | 281 kts | 146° |
| 2026-05-05 15:03 | 51.13021 | -1.53874 | 11640 ft | 284 kts | 144° |
| 2026-05-05 15:03 | 51.11400 | -1.52060 | 12637 ft | 287 kts | 144° |
| 2026-05-05 15:03 | 51.09749 | -1.50206 | 13620 ft | 292 kts | 142° |
| 2026-05-05 15:04 | 51.08068 | -1.48354 | 14488 ft | 296 kts | 144° |
| 2026-05-05 15:04 | 51.06371 | -1.46472 | 15356 ft | 300 kts | 143° |
| 2026-05-05 15:04 | 51.04640 | -1.44565 | 16190 ft | 304 kts | 144° |
| 2026-05-05 15:04 | 51.02899 | -1.42631 | 17084 ft | 307 kts | 144° |
| 2026-05-05 15:05 | 50.99343 | -1.38708 | 18764 ft | 315 kts | 145° |
| 2026-05-05 15:05 | 50.97586 | -1.36605 | 19526 ft | 319 kts | 134° |
| 2026-05-05 15:05 | 50.96467 | -1.33570 | 20303 ft | 324 kts | 110° |
| 2026-05-05 15:06 | 50.96182 | -1.30024 | 21106 ft | 328 kts | 83° |
| 2026-05-05 15:06 | 50.96607 | -1.26444 | 21915 ft | 333 kts | 78° |
| 2026-05-05 15:06 | 50.97122 | -1.22817 | 22680 ft | 340 kts | 76° |
| 2026-05-05 15:06 | 50.97691 | -1.19139 | 23458 ft | 346 kts | 77° |
| 2026-05-05 15:07 | 50.98206 | -1.15388 | 24156 ft | 350 kts | 78° |
| 2026-05-05 15:07 | 50.98718 | -1.11580 | 24722 ft | 356 kts | 79° |
| 2026-05-05 15:07 | 50.99240 | -1.07781 | 25414 ft | 357 kts | 78° |
| 2026-05-05 15:07 | 50.99778 | -1.03924 | 26028 ft | 360 kts | 79° |
| 2026-05-05 15:08 | 51.00315 | -1.00029 | 26627 ft | 363 kts | 79° |
| 2026-05-05 15:08 | 51.00852 | -0.96086 | 27254 ft | 366 kts | 79° |
| 2026-05-05 15:08 | 51.01394 | -0.92124 | 27872 ft | 367 kts | 79° |
| 2026-05-05 15:08 | 51.01933 | -0.88167 | 28525 ft | 368 kts | 80° |
| 2026-05-05 15:09 | 51.02476 | -0.84187 | 29201 ft | 368 kts | 80° |
| 2026-05-05 15:09 | 51.03011 | -0.80226 | 29871 ft | 366 kts | 81° |
| 2026-05-05 15:09 | 51.03548 | -0.76269 | 30458 ft | 366 kts | 81° |
| 2026-05-05 15:09 | 51.04079 | -0.72310 | 30964 ft | 366 kts | 81° |
| 2026-05-05 15:10 | 51.04611 | -0.68368 | 31468 ft | 365 kts | 80° |
| 2026-05-05 15:10 | 51.05139 | -0.64416 | 31954 ft | 365 kts | 80° |
| 2026-05-05 15:10 | 51.05533 | -0.60438 | 32424 ft | 363 kts | 88° |
| 2026-05-05 15:10 | 51.05755 | -0.56432 | 32872 ft | 363 kts | 86° |
| 2026-05-05 15:11 | 51.06027 | -0.52444 | 33325 ft | 363 kts | 85° |
| 2026-05-05 15:11 | 51.06288 | -0.48449 | 33770 ft | 363 kts | 85° |
| 2026-05-05 15:11 | 51.06527 | -0.44439 | 34160 ft | 363 kts | 86° |
| 2026-05-05 15:11 | 51.06770 | -0.40459 | 34522 ft | 363 kts | 86° |
| 2026-05-05 15:12 | 51.07014 | -0.36469 | 34886 ft | 362 kts | 85° |
| 2026-05-05 15:12 | 51.07261 | -0.32480 | 35252 ft | 362 kts | 86° |
| 2026-05-05 15:12 | 51.07501 | -0.28493 | 35616 ft | 362 kts | 86° |
| 2026-05-05 15:12 | 51.07740 | -0.24507 | 35994 ft | 362 kts | 86° |
| 2026-05-05 15:13 | 51.07980 | -0.20529 | 36385 ft | 361 kts | 86° |
| 2026-05-05 15:13 | 51.08216 | -0.16552 | 36768 ft | 361 kts | 86° |
| 2026-05-05 15:13 | 51.08452 | -0.12570 | 37167 ft | 361 kts | 86° |
| 2026-05-05 15:13 | 51.08685 | -0.08607 | 37572 ft | 360 kts | 86° |
| 2026-05-05 15:14 | 51.08917 | -0.04638 | 37972 ft | 360 kts | 86° |
| 2026-05-05 15:14 | 51.09147 | -0.00681 | 38390 ft | 360 kts | 86° |
| 2026-05-05 15:14 | 51.09377 | 0.03277 | 38803 ft | 360 kts | 87° |
| 2026-05-05 15:14 | 51.09606 | 0.07278 | 38959 ft | 366 kts | 86° |
| 2026-05-05 15:15 | 51.09839 | 0.11362 | 39026 ft | 375 kts | 87° |
| 2026-05-05 15:15 | 51.10314 | 0.19762 | 39092 ft | 392 kts | 86° |
| 2026-05-05 15:16 | 51.10808 | 0.28592 | 39127 ft | 408 kts | 86° |
| 2026-05-05 15:16 | 51.11311 | 0.37715 | 39141 ft | 420 kts | 87° |
| 2026-05-05 15:17 | 51.11821 | 0.47110 | 39140 ft | 430 kts | 86° |
| 2026-05-05 15:17 | 51.12333 | 0.56680 | 39132 ft | 436 kts | 86° |
| 2026-05-05 15:18 | 51.12839 | 0.66307 | 39095 ft | 437 kts | 87° |
| 2026-05-05 15:18 | 51.13340 | 0.75965 | 39052 ft | 439 kts | 86° |
| 2026-05-05 15:19 | 51.13833 | 0.85661 | 39008 ft | 439 kts | 86° |
| 2026-05-05 15:19 | 51.14321 | 0.95367 | 38936 ft | 440 kts | 87° |
| 2026-05-05 15:20 | 51.14799 | 1.05100 | 38942 ft | 441 kts | 87° |
| 2026-05-05 15:20 | 51.15272 | 1.14860 | 38943 ft | 442 kts | 88° |
| 2026-05-05 15:21 | 51.15733 | 1.24571 | 38945 ft | 442 kts | 86° |
| 2026-05-05 15:21 | 51.16185 | 1.34351 | 38943 ft | 443 kts | 89° |
| 2026-05-05 15:22 | 51.15868 | 1.44115 | 38937 ft | 442 kts | 96° |
| 2026-05-05 15:22 | 51.15409 | 1.53869 | 38934 ft | 442 kts | 96° |
| 2026-05-05 15:23 | 51.14925 | 1.63638 | 38938 ft | 442 kts | 96° |
| 2026-05-05 15:23 | 51.14444 | 1.73399 | 38938 ft | 443 kts | 97° |
| 2026-05-05 15:24 | 51.13945 | 1.83196 | 38930 ft | 446 kts | 97° |
| 2026-05-05 15:24 | 51.13439 | 1.93080 | 38930 ft | 446 kts | 97° |
| 2026-05-05 15:25 | 51.12926 | 2.02860 | 38929 ft | 445 kts | 96° |
| 2026-05-05 15:25 | 51.12405 | 2.12692 | 38926 ft | 445 kts | 97° |
| 2026-05-05 15:26 | 51.11873 | 2.22520 | 38925 ft | 445 kts | 97° |
| 2026-05-05 15:26 | 51.11335 | 2.32331 | 38907 ft | 445 kts | 96° |
| 2026-05-05 15:27 | 51.10788 | 2.42153 | 38902 ft | 445 kts | 97° |
| 2026-05-05 15:27 | 51.10233 | 2.51958 | 38893 ft | 446 kts | 97° |
| 2026-05-05 15:28 | 51.09669 | 2.61782 | 38893 ft | 446 kts | 98° |
| 2026-05-05 15:28 | 51.08356 | 2.71344 | 38887 ft | 442 kts | 108° |
| 2026-05-05 15:29 | 51.06946 | 2.79164 | 38888 ft | 442 kts | 108° |
| 2026-05-05 15:29 | 51.05239 | 2.88553 | 38902 ft | 442 kts | 108° |
| 2026-05-05 15:30 | 51.03234 | 2.99521 | 38901 ft | 442 kts | 108° |
| 2026-05-05 15:30 | 51.01803 | 3.07316 | 38896 ft | 442 kts | 109° |
| 2026-05-05 15:31 | 51.00070 | 3.16703 | 38890 ft | 442 kts | 108° |
| 2026-05-05 15:31 | 50.98347 | 3.25993 | 38883 ft | 442 kts | 109° |
| 2026-05-05 15:32 | 50.96589 | 3.35427 | 38874 ft | 442 kts | 109° |
| 2026-05-05 15:32 | 50.94837 | 3.44778 | 38869 ft | 442 kts | 109° |
| 2026-05-05 15:33 | 50.93088 | 3.54067 | 38869 ft | 442 kts | 109° |
| 2026-05-05 15:33 | 50.91321 | 3.63405 | 38871 ft | 442 kts | 109° |
| 2026-05-05 15:34 | 50.89530 | 3.72721 | 38879 ft | 442 kts | 109° |
| 2026-05-05 15:34 | 50.87730 | 3.82034 | 38876 ft | 442 kts | 109° |
| 2026-05-05 15:35 | 50.85924 | 3.91345 | 38880 ft | 442 kts | 109° |
| 2026-05-05 15:35 | 50.84110 | 4.00647 | 38879 ft | 442 kts | 109° |
| 2026-05-05 15:36 | 50.82289 | 4.09946 | 38877 ft | 443 kts | 110° |
| 2026-05-05 15:36 | 50.80450 | 4.19236 | 38878 ft | 442 kts | 111° |
| 2026-05-05 15:37 | 50.78367 | 4.28350 | 38877 ft | 442 kts | 109° |
| 2026-05-05 15:37 | 50.76768 | 4.37654 | 38879 ft | 441 kts | 109° |
| 2026-05-05 15:38 | 50.74914 | 4.46817 | 38879 ft | 441 kts | 110° |
| 2026-05-05 15:38 | 50.73156 | 4.56087 | 38877 ft | 441 kts | 109° |
| 2026-05-05 15:39 | 50.71343 | 4.65325 | 38878 ft | 440 kts | 110° |
| 2026-05-05 15:39 | 50.69542 | 4.74546 | 38869 ft | 441 kts | 110° |
| 2026-05-05 15:40 | 50.67721 | 4.83815 | 38869 ft | 442 kts | 110° |
| 2026-05-05 15:40 | 50.65896 | 4.93054 | 38866 ft | 441 kts | 110° |
| 2026-05-05 15:41 | 50.64002 | 5.02239 | 38866 ft | 440 kts | 111° |
| 2026-05-05 15:41 | 50.62119 | 5.11407 | 38864 ft | 440 kts | 110° |
| 2026-05-05 15:42 | 50.60226 | 5.20564 | 38857 ft | 439 kts | 111° |
| 2026-05-05 15:42 | 50.58329 | 5.29688 | 38851 ft | 438 kts | 111° |
| 2026-05-05 15:43 | 50.56430 | 5.38789 | 38844 ft | 438 kts | 111° |
| 2026-05-05 15:43 | 50.54521 | 5.47894 | 38841 ft | 439 kts | 111° |
| 2026-05-05 15:44 | 50.52604 | 5.57007 | 38842 ft | 440 kts | 111° |
| 2026-05-05 15:44 | 50.50961 | 5.66213 | 38834 ft | 441 kts | 105° |
| 2026-05-05 15:45 | 50.49777 | 5.75683 | 38832 ft | 441 kts | 104° |
| 2026-05-05 15:45 | 50.48544 | 5.85100 | 38831 ft | 440 kts | 104° |
| 2026-05-05 15:46 | 50.47315 | 5.94512 | 38834 ft | 440 kts | 104° |
| 2026-05-05 15:46 | 50.46081 | 6.03912 | 38827 ft | 439 kts | 104° |
| 2026-05-05 15:47 | 50.44841 | 6.13280 | 38835 ft | 438 kts | 104° |
| 2026-05-05 15:47 | 50.43595 | 6.22638 | 38830 ft | 438 kts | 104° |
| 2026-05-05 15:48 | 50.42345 | 6.31950 | 38816 ft | 437 kts | 105° |
| 2026-05-05 15:48 | 50.41080 | 6.41305 | 38814 ft | 437 kts | 105° |
| 2026-05-05 15:49 | 50.39793 | 6.50607 | 38803 ft | 436 kts | 105° |
| 2026-05-05 15:49 | 50.38513 | 6.59876 | 38803 ft | 436 kts | 105° |
| 2026-05-05 15:50 | 50.37216 | 6.69192 | 38810 ft | 437 kts | 105° |
| 2026-05-05 15:50 | 50.35921 | 6.78445 | 38818 ft | 439 kts | 105° |
| 2026-05-05 15:51 | 50.34606 | 6.87774 | 38819 ft | 438 kts | 105° |
| 2026-05-05 15:51 | 50.33288 | 6.97078 | 38819 ft | 437 kts | 106° |
| 2026-05-05 15:52 | 50.31963 | 7.06367 | 38820 ft | 438 kts | 106° |
| 2026-05-05 15:52 | 50.30626 | 7.15648 | 38820 ft | 437 kts | 106° |
| 2026-05-05 15:53 | 50.29286 | 7.24931 | 38819 ft | 437 kts | 106° |
| 2026-05-05 15:53 | 50.27941 | 7.34188 | 38817 ft | 436 kts | 106° |
| 2026-05-05 15:54 | 50.26591 | 7.43431 | 38824 ft | 437 kts | 106° |
| 2026-05-05 15:54 | 50.25217 | 7.52741 | 38820 ft | 442 kts | 107° |
| 2026-05-05 15:55 | 50.23833 | 7.62125 | 38812 ft | 442 kts | 107° |
| 2026-05-05 15:55 | 50.22437 | 7.71484 | 38813 ft | 441 kts | 107° |
| 2026-05-05 15:56 | 50.21052 | 7.80743 | 38817 ft | 440 kts | 107° |
| 2026-05-05 15:56 | 50.19653 | 7.90026 | 38814 ft | 439 kts | 107° |
| 2026-05-05 15:57 | 50.18250 | 7.99283 | 38821 ft | 439 kts | 107° |
| 2026-05-05 15:57 | 50.16839 | 8.08541 | 38831 ft | 438 kts | 107° |
| 2026-05-05 15:58 | 50.15417 | 8.17816 | 38532 ft | 446 kts | 107° |
| 2026-05-05 15:58 | 50.14681 | 8.22564 | 37896 ft | 448 kts | 107° |
| 2026-05-05 15:58 | 50.13973 | 8.27231 | 37297 ft | 439 kts | 107° |
| 2026-05-05 15:58 | 50.13260 | 8.31820 | 36735 ft | 432 kts | 108° |
| 2026-05-05 15:59 | 50.12555 | 8.36342 | 36173 ft | 427 kts | 108° |
| 2026-05-05 15:59 | 50.11855 | 8.40807 | 35613 ft | 421 kts | 108° |
| 2026-05-05 15:59 | 50.11173 | 8.45211 | 35039 ft | 416 kts | 108° |
| 2026-05-05 15:59 | 50.10488 | 8.49572 | 34492 ft | 411 kts | 108° |
| 2026-05-05 16:00 | 50.09814 | 8.53871 | 33951 ft | 410 kts | 109° |
| 2026-05-05 16:00 | 50.09133 | 8.58173 | 33382 ft | 409 kts | 108° |
| 2026-05-05 16:00 | 50.08456 | 8.62484 | 32833 ft | 408 kts | 108° |
| 2026-05-05 16:00 | 50.07778 | 8.66759 | 32297 ft | 407 kts | 108° |
| 2026-05-05 16:01 | 50.07103 | 8.71023 | 31763 ft | 406 kts | 108° |
| 2026-05-05 16:01 | 50.06418 | 8.75312 | 31223 ft | 409 kts | 108° |
| 2026-05-05 16:01 | 50.05776 | 8.79633 | 30682 ft | 414 kts | 103° |
| 2026-05-05 16:01 | 50.05534 | 8.84140 | 30134 ft | 422 kts | 94° |
| 2026-05-05 16:02 | 50.05645 | 8.88750 | 29538 ft | 427 kts | 90° |
| 2026-05-05 16:02 | 50.05888 | 8.93371 | 28969 ft | 430 kts | 88° |
| 2026-05-05 16:02 | 50.06076 | 8.97954 | 28408 ft | 429 kts | 92° |
| 2026-05-05 16:02 | 50.06075 | 9.02595 | 27841 ft | 429 kts | 94° |
| 2026-05-05 16:03 | 50.06095 | 9.07251 | 27302 ft | 431 kts | 92° |
| 2026-05-05 16:03 | 50.06194 | 9.11921 | 26736 ft | 432 kts | 91° |
| 2026-05-05 16:03 | 50.06288 | 9.16605 | 26150 ft | 434 kts | 91° |
| 2026-05-05 16:03 | 50.06348 | 9.21320 | 25589 ft | 436 kts | 92° |
| 2026-05-05 16:04 | 50.06400 | 9.26034 | 25015 ft | 436 kts | 91° |
| 2026-05-05 16:04 | 50.06470 | 9.30755 | 24440 ft | 435 kts | 91° |
| 2026-05-05 16:04 | 50.06534 | 9.35436 | 23873 ft | 430 kts | 91° |
| 2026-05-05 16:04 | 50.06597 | 9.40051 | 23295 ft | 423 kts | 91° |
| 2026-05-05 16:05 | 50.06645 | 9.44600 | 22713 ft | 417 kts | 91° |
| 2026-05-05 16:05 | 50.06703 | 9.49105 | 22161 ft | 411 kts | 91° |
| 2026-05-05 16:05 | 50.06750 | 9.53517 | 21625 ft | 406 kts | 91° |
| 2026-05-05 16:05 | 50.06802 | 9.57877 | 21091 ft | 403 kts | 91° |
| 2026-05-05 16:06 | 50.06843 | 9.62237 | 20559 ft | 399 kts | 91° |
| 2026-05-05 16:06 | 50.06895 | 9.66538 | 20036 ft | 397 kts | 91° |
| 2026-05-05 16:06 | 50.06927 | 9.70830 | 19517 ft | 396 kts | 92° |
| 2026-05-05 16:06 | 50.06973 | 9.75114 | 18986 ft | 396 kts | 91° |
| 2026-05-05 16:07 | 50.07011 | 9.79412 | 18459 ft | 396 kts | 91° |
| 2026-05-05 16:07 | 50.07051 | 9.83679 | 17917 ft | 394 kts | 91° |
| 2026-05-05 16:07 | 50.07098 | 9.87882 | 17392 ft | 389 kts | 91° |
| 2026-05-05 16:07 | 50.07132 | 9.92105 | 16860 ft | 385 kts | 91° |
| 2026-05-05 16:08 | 50.07175 | 9.96248 | 16358 ft | 381 kts | 91° |
| 2026-05-05 16:08 | 50.07199 | 10.00306 | 15867 ft | 378 kts | 91° |
| 2026-05-05 16:08 | 50.07239 | 10.04433 | 15362 ft | 376 kts | 91° |
| 2026-05-05 16:08 | 50.07267 | 10.08490 | 14865 ft | 374 kts | 91° |
| 2026-05-05 16:09 | 50.07300 | 10.12531 | 14363 ft | 372 kts | 92° |
| 2026-05-05 16:09 | 50.07308 | 10.16493 | 13882 ft | 371 kts | 92° |
| 2026-05-05 16:09 | 50.07324 | 10.20470 | 13374 ft | 364 kts | 92° |
| 2026-05-05 16:09 | 50.07233 | 10.24408 | 12873 ft | 353 kts | 103° |
| 2026-05-05 16:10 | 50.06414 | 10.27890 | 12420 ft | 344 kts | 117° |
| 2026-05-05 16:10 | 50.05336 | 10.31169 | 11978 ft | 339 kts | 120° |
| 2026-05-05 16:10 | 50.04211 | 10.34374 | 11538 ft | 335 kts | 119° |
| 2026-05-05 16:10 | 50.03220 | 10.37629 | 11097 ft | 327 kts | 116° |
| 2026-05-05 16:11 | 50.02323 | 10.40712 | 10677 ft | 299 kts | 117° |
| 2026-05-05 16:11 | 49.99849 | 10.48725 | 9581 ft | 256 kts | 118° |
| 2026-05-05 16:12 | 49.99090 | 10.51189 | 9242 ft | 249 kts | 117° |
| 2026-05-05 16:12 | 49.97621 | 10.55960 | 8600 ft | 244 kts | 117° |
| 2026-05-05 16:13 | 49.95134 | 10.62887 | 7615 ft | 243 kts | 147° |
| 2026-05-05 16:13 | 49.93589 | 10.63880 | 7306 ft | 240 kts | 162° |
| 2026-05-05 16:13 | 49.92000 | 10.64678 | 6989 ft | 239 kts | 164° |
| 2026-05-05 16:14 | 49.89380 | 10.66000 | 6461 ft | 238 kts | 162° |
| 2026-05-05 16:14 | 49.86247 | 10.67674 | 5836 ft | 240 kts | 162° |
| 2026-05-05 16:15 | 49.82999 | 10.69299 | 5181 ft | 251 kts | 162° |
| 2026-05-05 16:15 | 49.79693 | 10.70914 | 4817 ft | 244 kts | 178° |
| 2026-05-05 16:16 | 49.76452 | 10.71133 | 4778 ft | 222 kts | 174° |
| 2026-05-05 16:16 | 49.73568 | 10.71694 | 4786 ft | 197 kts | 175° |
| 2026-05-05 16:17 | 49.70835 | 10.72146 | 4791 ft | 199 kts | 174° |
| 2026-05-05 16:17 | 49.69450 | 10.72379 | 4796 ft | 201 kts | 175° |
| 2026-05-05 16:18 | 49.66632 | 10.72851 | 4801 ft | 209 kts | 175° |
| 2026-05-05 16:18 | 49.65166 | 10.73100 | 4811 ft | 216 kts | 173° |
| 2026-05-05 16:18 | 49.63002 | 10.76181 | 4816 ft | 237 kts | 106° |
| 2026-05-05 16:19 | 49.62753 | 10.78730 | 4823 ft | 242 kts | 101° |
| 2026-05-05 16:19 | 49.62520 | 10.81308 | 4822 ft | 243 kts | 99° |
| 2026-05-05 16:19 | 49.62046 | 10.86458 | 4819 ft | 242 kts | 101° |
| 2026-05-05 16:20 | 49.61549 | 10.91578 | 4824 ft | 240 kts | 101° |
| 2026-05-05 16:20 | 49.61058 | 10.96661 | 4829 ft | 239 kts | 101° |
| 2026-05-05 16:21 | 49.60563 | 11.01743 | 4835 ft | 240 kts | 100° |
| 2026-05-05 16:22 | 49.59817 | 11.09371 | 4838 ft | 241 kts | 101° |
| 2026-05-05 16:22 | 49.59312 | 11.14482 | 4837 ft | 241 kts | 101° |
| 2026-05-05 16:23 | 49.58807 | 11.19572 | 4832 ft | 240 kts | 102° |
| 2026-05-05 16:23 | 49.58557 | 11.22130 | 4833 ft | 244 kts | 101° |
| 2026-05-05 16:23 | 49.58037 | 11.27423 | 4777 ft | 250 kts | 100° |
| 2026-05-05 16:24 | 49.57769 | 11.30051 | 4780 ft | 246 kts | 100° |
| 2026-05-05 16:24 | 49.57329 | 11.32569 | 4774 ft | 243 kts | 122° |
| 2026-05-05 16:24 | 49.54499 | 11.34354 | 4774 ft | 227 kts | 190° |
| 2026-05-05 16:25 | 49.52940 | 11.33969 | 4636 ft | 232 kts | 192° |
| 2026-05-05 16:25 | 49.49630 | 11.33116 | 3841 ft | 238 kts | 191° |
| 2026-05-05 16:25 | 49.48046 | 11.32756 | 3811 ft | 224 kts | 192° |
| 2026-05-05 16:26 | 49.46557 | 11.29510 | 3875 ft | 210 kts | 274° |
| 2026-05-05 16:26 | 49.46656 | 11.24984 | 3698 ft | 232 kts | 256° |
| 2026-05-05 16:27 | 49.46273 | 11.22507 | 3547 ft | 234 kts | 262° |
| 2026-05-05 16:27 | 49.46397 | 11.20022 | 3128 ft | 230 kts | 283° |
| 2026-05-05 16:27 | 49.47007 | 11.17814 | 2759 ft | 216 kts | 297° |
| 2026-05-05 16:27 | 49.47764 | 11.15963 | 2216 ft | 193 kts | 300° |
| 2026-05-05 16:28 | 49.48378 | 11.14547 | 1967 ft | 138 kts | 300° |
| 2026-05-05 16:28 | 49.48844 | 11.13407 | 1658 ft | 119 kts | 294° |
| 2026-05-05 16:28 | 49.49200 | 11.12272 | 1463 ft | 117 kts | 290° |
| 2026-05-05 16:28 | 49.49475 | 11.11120 | 1287 ft | 115 kts | 283° |
| 2026-05-05 16:29 | 49.49661 | 11.09947 | 1136 ft | 111 kts | 277° |
| 2026-05-05 16:29 | 49.49771 | 11.08833 | 1032 ft | 94 kts | 277° |
| 2026-05-05 16:29 | 49.49845 | 11.08065 | 1023 ft | 41 kts | 278° |
| 2026-05-05 16:29 | 49.49871 | 11.07762 | 1026 ft | 23 kts | 278° |
| 2026-05-05 16:30 | 49.49825 | 11.07653 | 1025 ft | 9 kts | 172° |
| 2026-05-05 16:30 | 49.49785 | 11.07683 | 1025 ft | 4 kts | 155° |
| 2026-05-05 16:30 | 49.49760 | 11.07700 | 1026 ft | 4 kts | 156° |
| 2026-05-05 16:30 | 49.49703 | 11.07742 | 1025 ft | 13 kts | 153° |
| 2026-05-05 16:31 | 49.49615 | 11.07741 | 1021 ft | 14 kts | 223° |
| 2026-05-05 16:31 | 49.49603 | 11.07602 | 1022 ft | 14 kts | 279° |
| 2026-05-05 16:31 | 49.49617 | 11.07455 | 1021 ft | 14 kts | 279° |
| 2026-05-05 16:31 | 49.49632 | 11.07304 | 1020 ft | 14 kts | 279° |
| 2026-05-05 16:32 | 49.49592 | 11.07208 | 1019 ft | 12 kts | 191° |
| 2026-05-05 16:32 | 49.49583 | 11.07111 | 1018 ft | 10 kts | 249° |
| 2026-05-05 16:32 | 49.49560 | 11.07091 | 1018 ft | 0 kts | 189° |